sensor_id;sensor_type;location;lat;lon;timestamp;P1;durP1;ratioP1;P2;durP2;ratioP2
4569;SDS011;2297;51.442;6.996;2023-04-25T00:00:41;12.88;;;4.20;;
4569;SDS011;2297;51.442;6.996;2023-04-25T00:03:07;16.88;;;5.15;;
4569;SDS011;2297;51.442;6.996;2023-04-25T00:05:34;13.68;;;4.97;;
4569;SDS011;2297;51.442;6.996;2023-04-25T00:08:03;14.63;;;4.53;;
4569;SDS011;2297;51.442;6.996;2023-04-25T00:10:30;11.93;;;4.30;;
4569;SDS011;2297;51.442;6.996;2023-04-25T00:12:57;11.15;;;4.63;;
4569;SDS011;2297;51.442;6.996;2023-04-25T00:15:27;13.07;;;5.78;;
4569;SDS011;2297;51.442;6.996;2023-04-25T00:17:55;11.20;;;4.47;;
4569;SDS011;2297;51.442;6.996;2023-04-25T00:20:21;14.27;;;5.25;;
4569;SDS011;2297;51.442;6.996;2023-04-25T00:22:49;20.20;;;5.88;;
4569;SDS011;2297;51.442;6.996;2023-04-25T00:25:19;16.08;;;4.30;;
4569;SDS011;2297;51.442;6.996;2023-04-25T00:27:45;9.63;;;4.43;;
4569;SDS011;2297;51.442;6.996;2023-04-25T00:30:12;10.68;;;4.50;;
4569;SDS011;2297;51.442;6.996;2023-04-25T00:32:39;14.30;;;4.55;;
4569;SDS011;2297;51.442;6.996;2023-04-25T00:35:06;9.43;;;4.43;;
4569;SDS011;2297;51.442;6.996;2023-04-25T00:37:33;13.10;;;4.47;;
4569;SDS011;2297;51.442;6.996;2023-04-25T00:40:00;8.57;;;3.85;;
4569;SDS011;2297;51.442;6.996;2023-04-25T00:42:29;11.07;;;4.07;;
4569;SDS011;2297;51.442;6.996;2023-04-25T00:44:57;10.20;;;4.53;;
4569;SDS011;2297;51.442;6.996;2023-04-25T00:47:25;12.32;;;4.30;;
4569;SDS011;2297;51.442;6.996;2023-04-25T00:49:52;14.93;;;4.43;;
4569;SDS011;2297;51.442;6.996;2023-04-25T00:52:18;9.38;;;3.92;;
4569;SDS011;2297;51.442;6.996;2023-04-25T00:54:45;12.55;;;5.22;;
4569;SDS011;2297;51.442;6.996;2023-04-25T00:57:12;8.30;;;4.40;;
4569;SDS011;2297;51.442;6.996;2023-04-25T00:59:40;14.88;;;4.43;;
4569;SDS011;2297;51.442;6.996;2023-04-25T01:02:12;13.77;;;4.68;;
4569;SDS011;2297;51.442;6.996;2023-04-25T01:04:39;12.20;;;4.20;;
4569;SDS011;2297;51.442;6.996;2023-04-25T01:07:05;12.55;;;5.15;;
4569;SDS011;2297;51.442;6.996;2023-04-25T01:09:33;10.80;;;4.30;;
4569;SDS011;2297;51.442;6.996;2023-04-25T01:12:00;10.82;;;5.05;;
4569;SDS011;2297;51.442;6.996;2023-04-25T01:14:27;13.40;;;5.32;;
4569;SDS011;2297;51.442;6.996;2023-04-25T01:16:56;15.68;;;6.22;;
4569;SDS011;2297;51.442;6.996;2023-04-25T01:19:23;12.85;;;5.03;;
4569;SDS011;2297;51.442;6.996;2023-04-25T01:21:51;16.20;;;5.45;;
4569;SDS011;2297;51.442;6.996;2023-04-25T01:24:18;11.93;;;5.45;;
4569;SDS011;2297;51.442;6.996;2023-04-25T01:26:45;10.25;;;5.75;;
4569;SDS011;2297;51.442;6.996;2023-04-25T01:29:14;11.45;;;5.75;;
4569;SDS011;2297;51.442;6.996;2023-04-25T01:31:41;9.60;;;5.22;;
4569;SDS011;2297;51.442;6.996;2023-04-25T01:34:09;13.30;;;5.85;;
4569;SDS011;2297;51.442;6.996;2023-04-25T01:36:35;10.13;;;4.97;;
4569;SDS011;2297;51.442;6.996;2023-04-25T01:39:03;11.82;;;5.60;;
4569;SDS011;2297;51.442;6.996;2023-04-25T01:41:31;16.95;;;5.47;;
4569;SDS011;2297;51.442;6.996;2023-04-25T01:43:59;14.35;;;5.35;;
4569;SDS011;2297;51.442;6.996;2023-04-25T01:46:26;14.88;;;5.32;;
4569;SDS011;2297;51.442;6.996;2023-04-25T01:48:53;14.43;;;5.57;;
4569;SDS011;2297;51.442;6.996;2023-04-25T01:51:20;12.75;;;5.38;;
4569;SDS011;2297;51.442;6.996;2023-04-25T01:53:47;14.35;;;4.93;;
4569;SDS011;2297;51.442;6.996;2023-04-25T01:56:15;16.73;;;5.15;;
4569;SDS011;2297;51.442;6.996;2023-04-25T01:58:41;12.82;;;5.13;;
4569;SDS011;2297;51.442;6.996;2023-04-25T02:01:08;11.65;;;4.82;;
4569;SDS011;2297;51.442;6.996;2023-04-25T02:03:35;11.63;;;5.82;;
4569;SDS011;2297;51.442;6.996;2023-04-25T02:06:02;12.73;;;5.22;;
4569;SDS011;2297;51.442;6.996;2023-04-25T02:08:28;11.88;;;5.10;;
4569;SDS011;2297;51.442;6.996;2023-04-25T02:10:56;15.52;;;5.18;;
4569;SDS011;2297;51.442;6.996;2023-04-25T02:13:24;12.95;;;5.90;;
4569;SDS011;2297;51.442;6.996;2023-04-25T02:15:50;16.27;;;5.35;;
4569;SDS011;2297;51.442;6.996;2023-04-25T02:18:17;15.80;;;5.93;;
4569;SDS011;2297;51.442;6.996;2023-04-25T02:20:45;14.52;;;5.30;;
4569;SDS011;2297;51.442;6.996;2023-04-25T02:23:12;13.02;;;5.38;;
4569;SDS011;2297;51.442;6.996;2023-04-25T02:25:41;15.20;;;5.22;;
4569;SDS011;2297;51.442;6.996;2023-04-25T02:28:13;11.65;;;5.18;;
4569;SDS011;2297;51.442;6.996;2023-04-25T02:30:41;15.13;;;6.05;;
4569;SDS011;2297;51.442;6.996;2023-04-25T02:33:08;14.27;;;5.85;;
4569;SDS011;2297;51.442;6.996;2023-04-25T02:35:35;14.38;;;5.18;;
4569;SDS011;2297;51.442;6.996;2023-04-25T02:38:02;14.30;;;6.22;;
4569;SDS011;2297;51.442;6.996;2023-04-25T02:40:28;14.25;;;6.05;;
4569;SDS011;2297;51.442;6.996;2023-04-25T02:42:55;11.15;;;5.43;;
4569;SDS011;2297;51.442;6.996;2023-04-25T02:45:24;15.38;;;5.88;;
4569;SDS011;2297;51.442;6.996;2023-04-25T02:47:52;17.77;;;8.50;;
4569;SDS011;2297;51.442;6.996;2023-04-25T02:50:18;12.00;;;6.88;;
4569;SDS011;2297;51.442;6.996;2023-04-25T02:52:45;14.43;;;6.07;;
4569;SDS011;2297;51.442;6.996;2023-04-25T02:55:12;12.23;;;5.85;;
4569;SDS011;2297;51.442;6.996;2023-04-25T02:57:38;12.70;;;5.38;;
4569;SDS011;2297;51.442;6.996;2023-04-25T03:00:05;18.42;;;7.00;;
4569;SDS011;2297;51.442;6.996;2023-04-25T03:02:33;15.60;;;6.63;;
4569;SDS011;2297;51.442;6.996;2023-04-25T03:05:01;15.65;;;6.40;;
4569;SDS011;2297;51.442;6.996;2023-04-25T03:07:28;14.20;;;5.95;;
4569;SDS011;2297;51.442;6.996;2023-04-25T03:09:54;13.35;;;5.30;;
4569;SDS011;2297;51.442;6.996;2023-04-25T03:12:21;15.95;;;6.03;;
4569;SDS011;2297;51.442;6.996;2023-04-25T03:14:48;14.32;;;5.95;;
4569;SDS011;2297;51.442;6.996;2023-04-25T03:17:15;24.05;;;7.32;;
4569;SDS011;2297;51.442;6.996;2023-04-25T03:19:41;16.15;;;6.90;;
4569;SDS011;2297;51.442;6.996;2023-04-25T03:22:09;18.73;;;7.18;;
4569;SDS011;2297;51.442;6.996;2023-04-25T03:24:36;19.33;;;7.25;;
4569;SDS011;2297;51.442;6.996;2023-04-25T03:27:02;18.80;;;6.82;;
4569;SDS011;2297;51.442;6.996;2023-04-25T03:29:29;17.92;;;6.25;;
4569;SDS011;2297;51.442;6.996;2023-04-25T03:31:56;17.25;;;6.28;;
4569;SDS011;2297;51.442;6.996;2023-04-25T03:34:22;17.20;;;6.82;;
4569;SDS011;2297;51.442;6.996;2023-04-25T03:36:51;13.25;;;6.07;;
4569;SDS011;2297;51.442;6.996;2023-04-25T03:39:21;16.63;;;6.00;;
4569;SDS011;2297;51.442;6.996;2023-04-25T03:41:48;19.17;;;6.57;;
4569;SDS011;2297;51.442;6.996;2023-04-25T03:44:14;14.68;;;5.50;;
4569;SDS011;2297;51.442;6.996;2023-04-25T03:46:41;20.00;;;5.68;;
4569;SDS011;2297;51.442;6.996;2023-04-25T03:49:07;17.35;;;7.43;;
4569;SDS011;2297;51.442;6.996;2023-04-25T03:51:34;17.65;;;5.53;;
4569;SDS011;2297;51.442;6.996;2023-04-25T03:54:01;17.65;;;5.88;;
4569;SDS011;2297;51.442;6.996;2023-04-25T03:56:29;16.17;;;5.85;;
4569;SDS011;2297;51.442;6.996;2023-04-25T03:58:56;18.75;;;5.40;;
4569;SDS011;2297;51.442;6.996;2023-04-25T04:04:11;18.17;;;5.68;;
4569;SDS011;2297;51.442;6.996;2023-04-25T04:06:37;22.00;;;5.32;;
4569;SDS011;2297;51.442;6.996;2023-04-25T04:09:04;18.02;;;5.22;;
4569;SDS011;2297;51.442;6.996;2023-04-25T04:11:36;20.23;;;5.47;;
4569;SDS011;2297;51.442;6.996;2023-04-25T04:14:03;15.90;;;5.38;;
4569;SDS011;2297;51.442;6.996;2023-04-25T04:16:30;22.27;;;6.18;;
4569;SDS011;2297;51.442;6.996;2023-04-25T04:18:57;18.42;;;5.40;;
4569;SDS011;2297;51.442;6.996;2023-04-25T04:21:24;22.80;;;6.90;;
4569;SDS011;2297;51.442;6.996;2023-04-25T04:23:52;17.58;;;6.63;;
4569;SDS011;2297;51.442;6.996;2023-04-25T04:26:19;18.70;;;5.75;;
4569;SDS011;2297;51.442;6.996;2023-04-25T04:28:49;21.40;;;7.20;;
4569;SDS011;2297;51.442;6.996;2023-04-25T04:31:16;23.80;;;7.35;;
4569;SDS011;2297;51.442;6.996;2023-04-25T04:33:44;18.45;;;7.88;;
4569;SDS011;2297;51.442;6.996;2023-04-25T04:36:11;17.85;;;6.65;;
4569;SDS011;2297;51.442;6.996;2023-04-25T04:38:38;17.50;;;6.20;;
4569;SDS011;2297;51.442;6.996;2023-04-25T04:41:05;14.80;;;6.18;;
4569;SDS011;2297;51.442;6.996;2023-04-25T04:43:32;21.25;;;6.35;;
4569;SDS011;2297;51.442;6.996;2023-04-25T04:46:00;17.30;;;5.80;;
4569;SDS011;2297;51.442;6.996;2023-04-25T04:48:28;23.15;;;6.43;;
4569;SDS011;2297;51.442;6.996;2023-04-25T04:50:57;18.02;;;5.93;;
4569;SDS011;2297;51.442;6.996;2023-04-25T04:53:24;14.43;;;6.07;;
4569;SDS011;2297;51.442;6.996;2023-04-25T04:55:51;18.05;;;5.50;;
4569;SDS011;2297;51.442;6.996;2023-04-25T04:58:17;17.23;;;5.70;;
4569;SDS011;2297;51.442;6.996;2023-04-25T05:00:44;20.15;;;5.90;;
4569;SDS011;2297;51.442;6.996;2023-04-25T05:03:12;20.58;;;6.05;;
4569;SDS011;2297;51.442;6.996;2023-04-25T05:05:39;21.48;;;7.60;;
4569;SDS011;2297;51.442;6.996;2023-04-25T05:08:07;18.13;;;5.38;;
4569;SDS011;2297;51.442;6.996;2023-04-25T05:10:36;15.52;;;5.38;;
4569;SDS011;2297;51.442;6.996;2023-04-25T05:13:03;17.30;;;6.13;;
4569;SDS011;2297;51.442;6.996;2023-04-25T05:15:30;17.58;;;6.57;;
4569;SDS011;2297;51.442;6.996;2023-04-25T05:17:56;17.35;;;5.53;;
4569;SDS011;2297;51.442;6.996;2023-04-25T05:20:24;12.48;;;5.15;;
4569;SDS011;2297;51.442;6.996;2023-04-25T05:22:51;20.80;;;6.28;;
4569;SDS011;2297;51.442;6.996;2023-04-25T05:25:18;20.08;;;6.00;;
4569;SDS011;2297;51.442;6.996;2023-04-25T05:27:44;13.15;;;4.95;;
4569;SDS011;2297;51.442;6.996;2023-04-25T05:30:11;14.43;;;5.70;;
4569;SDS011;2297;51.442;6.996;2023-04-25T05:32:39;15.27;;;5.18;;
4569;SDS011;2297;51.442;6.996;2023-04-25T05:35:06;15.93;;;4.90;;
4569;SDS011;2297;51.442;6.996;2023-04-25T05:37:35;16.25;;;5.43;;
4569;SDS011;2297;51.442;6.996;2023-04-25T05:40:02;21.38;;;5.55;;
4569;SDS011;2297;51.442;6.996;2023-04-25T05:42:31;19.15;;;5.13;;
4569;SDS011;2297;51.442;6.996;2023-04-25T05:44:58;14.65;;;4.60;;
4569;SDS011;2297;51.442;6.996;2023-04-25T05:47:25;15.50;;;5.47;;
4569;SDS011;2297;51.442;6.996;2023-04-25T05:49:52;20.88;;;5.93;;
4569;SDS011;2297;51.442;6.996;2023-04-25T05:52:18;23.52;;;5.78;;
4569;SDS011;2297;51.442;6.996;2023-04-25T05:54:46;14.38;;;4.93;;
4569;SDS011;2297;51.442;6.996;2023-04-25T05:57:18;15.23;;;5.10;;
4569;SDS011;2297;51.442;6.996;2023-04-25T05:59:46;16.60;;;5.80;;
4569;SDS011;2297;51.442;6.996;2023-04-25T06:02:13;21.48;;;5.70;;
4569;SDS011;2297;51.442;6.996;2023-04-25T06:04:40;12.05;;;5.00;;
4569;SDS011;2297;51.442;6.996;2023-04-25T06:07:06;15.25;;;4.40;;
4569;SDS011;2297;51.442;6.996;2023-04-25T06:09:33;18.77;;;5.70;;
4569;SDS011;2297;51.442;6.996;2023-04-25T06:12:01;14.00;;;4.88;;
4569;SDS011;2297;51.442;6.996;2023-04-25T06:14:28;12.75;;;5.20;;
4569;SDS011;2297;51.442;6.996;2023-04-25T06:16:55;15.18;;;4.95;;
4569;SDS011;2297;51.442;6.996;2023-04-25T06:19:22;13.32;;;5.10;;
4569;SDS011;2297;51.442;6.996;2023-04-25T06:21:48;17.20;;;5.63;;
4569;SDS011;2297;51.442;6.996;2023-04-25T06:24:15;17.73;;;5.47;;
4569;SDS011;2297;51.442;6.996;2023-04-25T06:26:41;13.50;;;4.57;;
4569;SDS011;2297;51.442;6.996;2023-04-25T06:29:10;16.75;;;6.07;;
4569;SDS011;2297;51.442;6.996;2023-04-25T06:31:36;12.98;;;4.78;;
4569;SDS011;2297;51.442;6.996;2023-04-25T06:34:03;15.05;;;4.75;;
4569;SDS011;2297;51.442;6.996;2023-04-25T06:36:29;14.13;;;4.53;;
4569;SDS011;2297;51.442;6.996;2023-04-25T06:38:56;15.32;;;5.45;;
4569;SDS011;2297;51.442;6.996;2023-04-25T06:41:23;40.35;;;17.17;;
4569;SDS011;2297;51.442;6.996;2023-04-25T06:43:50;27.08;;;5.82;;
4569;SDS011;2297;51.442;6.996;2023-04-25T06:46:18;15.00;;;4.97;;
4569;SDS011;2297;51.442;6.996;2023-04-25T06:48:44;11.38;;;4.05;;
4569;SDS011;2297;51.442;6.996;2023-04-25T06:51:11;10.90;;;3.75;;
4569;SDS011;2297;51.442;6.996;2023-04-25T06:53:38;21.83;;;9.85;;
4569;SDS011;2297;51.442;6.996;2023-04-25T06:56:05;10.85;;;4.93;;
4569;SDS011;2297;51.442;6.996;2023-04-25T06:58:32;16.25;;;4.28;;
4569;SDS011;2297;51.442;6.996;2023-04-25T07:00:59;10.88;;;4.40;;
4569;SDS011;2297;51.442;6.996;2023-04-25T07:03:27;10.88;;;4.20;;
4569;SDS011;2297;51.442;6.996;2023-04-25T07:05:54;10.25;;;3.55;;
4569;SDS011;2297;51.442;6.996;2023-04-25T07:08:21;11.40;;;3.42;;
4569;SDS011;2297;51.442;6.996;2023-04-25T07:10:47;6.20;;;3.17;;
4569;SDS011;2297;51.442;6.996;2023-04-25T07:13:14;15.15;;;3.25;;
4569;SDS011;2297;51.442;6.996;2023-04-25T07:15:41;11.65;;;4.03;;
4569;SDS011;2297;51.442;6.996;2023-04-25T07:18:08;7.70;;;2.97;;
4569;SDS011;2297;51.442;6.996;2023-04-25T07:20:37;12.38;;;3.58;;
4569;SDS011;2297;51.442;6.996;2023-04-25T07:23:03;13.05;;;3.85;;
4569;SDS011;2297;51.442;6.996;2023-04-25T07:25:30;14.88;;;3.97;;
4569;SDS011;2297;51.442;6.996;2023-04-25T07:27:56;11.88;;;4.32;;
4569;SDS011;2297;51.442;6.996;2023-04-25T07:30:23;9.50;;;3.85;;
4569;SDS011;2297;51.442;6.996;2023-04-25T07:32:53;7.70;;;3.40;;
4569;SDS011;2297;51.442;6.996;2023-04-25T07:35:20;10.35;;;4.18;;
4569;SDS011;2297;51.442;6.996;2023-04-25T07:37:48;9.80;;;3.00;;
4569;SDS011;2297;51.442;6.996;2023-04-25T07:40:15;14.52;;;3.60;;
4569;SDS011;2297;51.442;6.996;2023-04-25T07:42:42;7.85;;;3.30;;
4569;SDS011;2297;51.442;6.996;2023-04-25T07:45:09;12.93;;;3.22;;
4569;SDS011;2297;51.442;6.996;2023-04-25T07:47:36;6.30;;;2.70;;
4569;SDS011;2297;51.442;6.996;2023-04-25T07:50:03;10.38;;;2.75;;
4569;SDS011;2297;51.442;6.996;2023-04-25T07:52:30;10.07;;;3.08;;
4569;SDS011;2297;51.442;6.996;2023-04-25T07:54:58;5.60;;;2.20;;
4569;SDS011;2297;51.442;6.996;2023-04-25T07:57:25;10.85;;;2.60;;
4569;SDS011;2297;51.442;6.996;2023-04-25T07:59:52;10.55;;;2.58;;
4569;SDS011;2297;51.442;6.996;2023-04-25T08:02:18;6.32;;;2.50;;
4569;SDS011;2297;51.442;6.996;2023-04-25T08:04:45;7.22;;;2.60;;
4569;SDS011;2297;51.442;6.996;2023-04-25T08:07:12;7.10;;;2.65;;
4569;SDS011;2297;51.442;6.996;2023-04-25T08:09:38;10.45;;;3.05;;
4569;SDS011;2297;51.442;6.996;2023-04-25T08:12:06;5.80;;;2.38;;
4569;SDS011;2297;51.442;6.996;2023-04-25T08:14:33;10.35;;;2.78;;
4569;SDS011;2297;51.442;6.996;2023-04-25T08:17:02;9.38;;;3.08;;
4569;SDS011;2297;51.442;6.996;2023-04-25T08:19:29;17.35;;;4.07;;
4569;SDS011;2297;51.442;6.996;2023-04-25T08:21:59;7.13;;;2.40;;
4569;SDS011;2297;51.442;6.996;2023-04-25T08:24:25;6.82;;;2.03;;
4569;SDS011;2297;51.442;6.996;2023-04-25T08:26:52;12.57;;;2.70;;
4569;SDS011;2297;51.442;6.996;2023-04-25T08:29:20;11.40;;;2.80;;
4569;SDS011;2297;51.442;6.996;2023-04-25T08:31:49;10.20;;;2.90;;
4569;SDS011;2297;51.442;6.996;2023-04-25T08:34:15;10.10;;;2.40;;
4569;SDS011;2297;51.442;6.996;2023-04-25T08:36:42;5.60;;;2.50;;
4569;SDS011;2297;51.442;6.996;2023-04-25T08:39:08;8.18;;;2.20;;
4569;SDS011;2297;51.442;6.996;2023-04-25T08:41:38;9.10;;;2.72;;
4569;SDS011;2297;51.442;6.996;2023-04-25T08:44:06;10.23;;;2.55;;
4569;SDS011;2297;51.442;6.996;2023-04-25T08:46:37;13.82;;;2.88;;
4569;SDS011;2297;51.442;6.996;2023-04-25T08:49:05;9.00;;;2.83;;
4569;SDS011;2297;51.442;6.996;2023-04-25T08:51:32;9.88;;;2.50;;
4569;SDS011;2297;51.442;6.996;2023-04-25T08:54:01;10.10;;;3.45;;
4569;SDS011;2297;51.442;6.996;2023-04-25T08:56:35;6.93;;;2.22;;
4569;SDS011;2297;51.442;6.996;2023-04-25T08:59:02;8.85;;;2.35;;
4569;SDS011;2297;51.442;6.996;2023-04-25T09:01:29;9.15;;;2.33;;
4569;SDS011;2297;51.442;6.996;2023-04-25T09:03:58;13.25;;;2.70;;
4569;SDS011;2297;51.442;6.996;2023-04-25T09:06:25;10.57;;;3.47;;
4569;SDS011;2297;51.442;6.996;2023-04-25T09:08:52;7.40;;;2.15;;
4569;SDS011;2297;51.442;6.996;2023-04-25T09:11:19;7.25;;;2.50;;
4569;SDS011;2297;51.442;6.996;2023-04-25T09:13:46;8.70;;;2.28;;
4569;SDS011;2297;51.442;6.996;2023-04-25T09:16:12;6.65;;;2.40;;
4569;SDS011;2297;51.442;6.996;2023-04-25T09:18:42;10.35;;;2.70;;
4569;SDS011;2297;51.442;6.996;2023-04-25T09:21:11;8.27;;;2.30;;
4569;SDS011;2297;51.442;6.996;2023-04-25T09:23:41;6.93;;;1.85;;
4569;SDS011;2297;51.442;6.996;2023-04-25T09:26:10;6.82;;;2.20;;
4569;SDS011;2297;51.442;6.996;2023-04-25T09:28:39;6.97;;;2.10;;
4569;SDS011;2297;51.442;6.996;2023-04-25T09:31:09;8.68;;;2.00;;
4569;SDS011;2297;51.442;6.996;2023-04-25T09:33:36;8.07;;;2.03;;
4569;SDS011;2297;51.442;6.996;2023-04-25T09:36:03;8.23;;;2.05;;
4569;SDS011;2297;51.442;6.996;2023-04-25T09:38:39;10.20;;;2.55;;
4569;SDS011;2297;51.442;6.996;2023-04-25T09:41:07;7.38;;;1.85;;
4569;SDS011;2297;51.442;6.996;2023-04-25T09:43:34;4.82;;;1.95;;
4569;SDS011;2297;51.442;6.996;2023-04-25T09:46:01;9.18;;;2.20;;
4569;SDS011;2297;51.442;6.996;2023-04-25T09:48:28;10.90;;;2.30;;
4569;SDS011;2297;51.442;6.996;2023-04-25T09:51:04;5.28;;;1.75;;
4569;SDS011;2297;51.442;6.996;2023-04-25T09:53:33;5.93;;;1.60;;
4569;SDS011;2297;51.442;6.996;2023-04-25T09:56:00;5.97;;;1.98;;
4569;SDS011;2297;51.442;6.996;2023-04-25T09:58:30;5.88;;;1.75;;
4569;SDS011;2297;51.442;6.996;2023-04-25T10:00:58;6.72;;;1.70;;
4569;SDS011;2297;51.442;6.996;2023-04-25T10:03:26;5.85;;;1.90;;
4569;SDS011;2297;51.442;6.996;2023-04-25T10:05:59;5.18;;;1.50;;
4569;SDS011;2297;51.442;6.996;2023-04-25T10:08:29;7.88;;;2.17;;
4569;SDS011;2297;51.442;6.996;2023-04-25T10:11:00;4.00;;;1.70;;
4569;SDS011;2297;51.442;6.996;2023-04-25T10:13:28;6.13;;;1.63;;
4569;SDS011;2297;51.442;6.996;2023-04-25T10:15:56;5.57;;;1.85;;
4569;SDS011;2297;51.442;6.996;2023-04-25T10:18:24;4.47;;;1.67;;
4569;SDS011;2297;51.442;6.996;2023-04-25T10:20:51;5.90;;;2.08;;
4569;SDS011;2297;51.442;6.996;2023-04-25T10:23:20;8.73;;;1.80;;
4569;SDS011;2297;51.442;6.996;2023-04-25T10:25:47;7.07;;;2.03;;
4569;SDS011;2297;51.442;6.996;2023-04-25T10:28:15;6.85;;;1.88;;
4569;SDS011;2297;51.442;6.996;2023-04-25T10:30:56;5.45;;;1.88;;
4569;SDS011;2297;51.442;6.996;2023-04-25T10:33:29;3.85;;;1.70;;
4569;SDS011;2297;51.442;6.996;2023-04-25T10:35:58;6.88;;;1.98;;
4569;SDS011;2297;51.442;6.996;2023-04-25T10:38:25;8.10;;;2.45;;
4569;SDS011;2297;51.442;6.996;2023-04-25T10:41:05;6.50;;;1.85;;
4569;SDS011;2297;51.442;6.996;2023-04-25T10:43:36;5.03;;;1.90;;
4569;SDS011;2297;51.442;6.996;2023-04-25T10:46:16;6.85;;;2.28;;
4569;SDS011;2297;51.442;6.996;2023-04-25T10:48:48;7.85;;;2.58;;
4569;SDS011;2297;51.442;6.996;2023-04-25T10:51:17;8.13;;;2.35;;
4569;SDS011;2297;51.442;6.996;2023-04-25T10:53:56;5.00;;;1.85;;
4569;SDS011;2297;51.442;6.996;2023-04-25T10:56:25;4.47;;;1.58;;
4569;SDS011;2297;51.442;6.996;2023-04-25T10:58:56;4.95;;;1.90;;
4569;SDS011;2297;51.442;6.996;2023-04-25T11:01:35;5.85;;;1.90;;
4569;SDS011;2297;51.442;6.996;2023-04-25T11:04:02;8.98;;;3.05;;
4569;SDS011;2297;51.442;6.996;2023-04-25T11:06:32;13.40;;;3.33;;
4569;SDS011;2297;51.442;6.996;2023-04-25T11:09:09;5.57;;;2.08;;
4569;SDS011;2297;51.442;6.996;2023-04-25T11:11:38;9.48;;;2.03;;
4569;SDS011;2297;51.442;6.996;2023-04-25T11:14:06;4.93;;;1.90;;
4569;SDS011;2297;51.442;6.996;2023-04-25T11:16:33;11.82;;;2.17;;
4569;SDS011;2297;51.442;6.996;2023-04-25T11:19:01;5.78;;;2.05;;
4569;SDS011;2297;51.442;6.996;2023-04-25T11:21:28;8.35;;;2.17;;
4569;SDS011;2297;51.442;6.996;2023-04-25T11:23:56;5.75;;;1.80;;
4569;SDS011;2297;51.442;6.996;2023-04-25T11:26:24;7.63;;;2.42;;
4569;SDS011;2297;51.442;6.996;2023-04-25T11:28:50;9.55;;;2.28;;
4569;SDS011;2297;51.442;6.996;2023-04-25T11:31:20;8.63;;;2.30;;
4569;SDS011;2297;51.442;6.996;2023-04-25T11:33:47;6.32;;;1.80;;
4569;SDS011;2297;51.442;6.996;2023-04-25T11:36:23;6.40;;;1.70;;
4569;SDS011;2297;51.442;6.996;2023-04-25T11:38:50;7.80;;;2.03;;
4569;SDS011;2297;51.442;6.996;2023-04-25T11:41:17;4.10;;;1.67;;
4569;SDS011;2297;51.442;6.996;2023-04-25T11:43:44;4.55;;;2.20;;
4569;SDS011;2297;51.442;6.996;2023-04-25T11:46:11;5.47;;;1.90;;
4569;SDS011;2297;51.442;6.996;2023-04-25T11:48:39;5.95;;;2.13;;
4569;SDS011;2297;51.442;6.996;2023-04-25T11:51:06;4.75;;;1.90;;
4569;SDS011;2297;51.442;6.996;2023-04-25T11:56:37;10.02;;;2.28;;
4569;SDS011;2297;51.442;6.996;2023-04-25T11:59:04;7.28;;;1.92;;
4569;SDS011;2297;51.442;6.996;2023-04-25T12:01:32;4.25;;;1.88;;
4569;SDS011;2297;51.442;6.996;2023-04-25T12:04:10;6.35;;;2.15;;
4569;SDS011;2297;51.442;6.996;2023-04-25T12:06:38;6.05;;;2.15;;
4569;SDS011;2297;51.442;6.996;2023-04-25T12:09:07;9.15;;;2.10;;
4569;SDS011;2297;51.442;6.996;2023-04-25T12:11:40;6.97;;;1.83;;
4569;SDS011;2297;51.442;6.996;2023-04-25T12:14:07;6.40;;;2.30;;
4569;SDS011;2297;51.442;6.996;2023-04-25T12:16:39;5.07;;;2.08;;
4569;SDS011;2297;51.442;6.996;2023-04-25T12:19:07;9.70;;;2.05;;
4569;SDS011;2297;51.442;6.996;2023-04-25T12:21:35;3.38;;;2.00;;
4569;SDS011;2297;51.442;6.996;2023-04-25T12:24:09;7.07;;;2.10;;
4569;SDS011;2297;51.442;6.996;2023-04-25T12:26:49;6.45;;;3.10;;
4569;SDS011;2297;51.442;6.996;2023-04-25T12:29:18;5.28;;;2.15;;
4569;SDS011;2297;51.442;6.996;2023-04-25T12:34:34;5.72;;;2.70;;
4569;SDS011;2297;51.442;6.996;2023-04-25T12:37:02;9.18;;;2.90;;
4569;SDS011;2297;51.442;6.996;2023-04-25T12:39:28;7.25;;;2.20;;
4569;SDS011;2297;51.442;6.996;2023-04-25T12:41:55;4.65;;;1.85;;
4569;SDS011;2297;51.442;6.996;2023-04-25T12:44:22;4.13;;;2.00;;
4569;SDS011;2297;51.442;6.996;2023-04-25T12:46:48;7.80;;;2.25;;
4569;SDS011;2297;51.442;6.996;2023-04-25T12:49:15;4.38;;;1.60;;
4569;SDS011;2297;51.442;6.996;2023-04-25T12:51:42;7.15;;;2.03;;
4569;SDS011;2297;51.442;6.996;2023-04-25T12:54:10;4.80;;;1.90;;
4569;SDS011;2297;51.442;6.996;2023-04-25T12:56:36;4.72;;;2.10;;
4569;SDS011;2297;51.442;6.996;2023-04-25T12:59:03;4.85;;;2.25;;
4569;SDS011;2297;51.442;6.996;2023-04-25T13:01:30;3.63;;;1.85;;
4569;SDS011;2297;51.442;6.996;2023-04-25T13:03:56;3.38;;;1.80;;
4569;SDS011;2297;51.442;6.996;2023-04-25T13:06:23;6.88;;;1.63;;
4569;SDS011;2297;51.442;6.996;2023-04-25T13:08:51;6.78;;;2.03;;
4569;SDS011;2297;51.442;6.996;2023-04-25T13:11:19;6.38;;;2.00;;
4569;SDS011;2297;51.442;6.996;2023-04-25T13:13:46;5.15;;;2.05;;
4569;SDS011;2297;51.442;6.996;2023-04-25T13:16:13;5.60;;;2.00;;
4569;SDS011;2297;51.442;6.996;2023-04-25T13:18:40;6.22;;;1.75;;
4569;SDS011;2297;51.442;6.996;2023-04-25T13:21:09;4.50;;;1.98;;
4569;SDS011;2297;51.442;6.996;2023-04-25T13:23:36;8.00;;;2.17;;
4569;SDS011;2297;51.442;6.996;2023-04-25T13:26:03;5.43;;;1.83;;
4569;SDS011;2297;51.442;6.996;2023-04-25T13:28:32;3.60;;;1.50;;
4569;SDS011;2297;51.442;6.996;2023-04-25T13:30:58;5.07;;;1.63;;
4569;SDS011;2297;51.442;6.996;2023-04-25T13:33:25;7.88;;;2.30;;
4569;SDS011;2297;51.442;6.996;2023-04-25T13:35:52;5.93;;;2.03;;
4569;SDS011;2297;51.442;6.996;2023-04-25T13:38:21;4.00;;;1.42;;
4569;SDS011;2297;51.442;6.996;2023-04-25T13:40:48;5.38;;;1.70;;
4569;SDS011;2297;51.442;6.996;2023-04-25T13:43:18;5.18;;;1.73;;
4569;SDS011;2297;51.442;6.996;2023-04-25T13:45:48;4.47;;;1.50;;
4569;SDS011;2297;51.442;6.996;2023-04-25T13:48:14;6.75;;;1.67;;
4569;SDS011;2297;51.442;6.996;2023-04-25T13:50:41;4.32;;;1.60;;
4569;SDS011;2297;51.442;6.996;2023-04-25T13:53:08;5.95;;;1.67;;
4569;SDS011;2297;51.442;6.996;2023-04-25T13:55:35;4.78;;;1.80;;
4569;SDS011;2297;51.442;6.996;2023-04-25T13:58:02;7.72;;;1.98;;
4569;SDS011;2297;51.442;6.996;2023-04-25T14:00:32;2.70;;;1.30;;
4569;SDS011;2297;51.442;6.996;2023-04-25T14:03:02;6.13;;;1.52;;
4569;SDS011;2297;51.442;6.996;2023-04-25T14:05:31;4.63;;;1.48;;
4569;SDS011;2297;51.442;6.996;2023-04-25T14:08:00;5.57;;;1.60;;
4569;SDS011;2297;51.442;6.996;2023-04-25T14:10:26;12.30;;;4.43;;
4569;SDS011;2297;51.442;6.996;2023-04-25T14:12:53;10.52;;;3.72;;
4569;SDS011;2297;51.442;6.996;2023-04-25T14:15:19;2.95;;;1.50;;
4569;SDS011;2297;51.442;6.996;2023-04-25T14:17:46;6.95;;;1.40;;
4569;SDS011;2297;51.442;6.996;2023-04-25T14:20:14;4.45;;;1.63;;
4569;SDS011;2297;51.442;6.996;2023-04-25T14:22:45;4.53;;;1.40;;
4569;SDS011;2297;51.442;6.996;2023-04-25T14:25:12;4.75;;;1.60;;
4569;SDS011;2297;51.442;6.996;2023-04-25T14:27:38;2.55;;;1.42;;
4569;SDS011;2297;51.442;6.996;2023-04-25T14:30:06;2.38;;;1.25;;
4569;SDS011;2297;51.442;6.996;2023-04-25T14:32:34;6.38;;;1.40;;
4569;SDS011;2297;51.442;6.996;2023-04-25T14:35:00;5.65;;;1.63;;
4569;SDS011;2297;51.442;6.996;2023-04-25T14:37:29;3.63;;;1.30;;
4569;SDS011;2297;51.442;6.996;2023-04-25T14:39:55;2.67;;;1.20;;
4569;SDS011;2297;51.442;6.996;2023-04-25T14:42:22;6.00;;;1.48;;
4569;SDS011;2297;51.442;6.996;2023-04-25T14:44:48;3.10;;;1.13;;
4569;SDS011;2297;51.442;6.996;2023-04-25T14:47:16;3.45;;;1.50;;
4569;SDS011;2297;51.442;6.996;2023-04-25T14:49:42;4.70;;;1.10;;
4569;SDS011;2297;51.442;6.996;2023-04-25T14:52:11;6.25;;;1.60;;
4569;SDS011;2297;51.442;6.996;2023-04-25T14:54:39;3.88;;;1.40;;
4569;SDS011;2297;51.442;6.996;2023-04-25T14:57:06;3.60;;;1.40;;
4569;SDS011;2297;51.442;6.996;2023-04-25T14:59:32;4.20;;;1.42;;
4569;SDS011;2297;51.442;6.996;2023-04-25T15:01:59;7.82;;;1.77;;
4569;SDS011;2297;51.442;6.996;2023-04-25T15:04:26;4.45;;;1.60;;
4569;SDS011;2297;51.442;6.996;2023-04-25T15:06:52;4.90;;;1.52;;
4569;SDS011;2297;51.442;6.996;2023-04-25T15:09:19;4.97;;;1.65;;
4569;SDS011;2297;51.442;6.996;2023-04-25T15:11:47;4.15;;;1.67;;
4569;SDS011;2297;51.442;6.996;2023-04-25T15:14:14;12.82;;;5.72;;
4569;SDS011;2297;51.442;6.996;2023-04-25T15:16:40;30.45;;;13.52;;
4569;SDS011;2297;51.442;6.996;2023-04-25T15:19:07;9.35;;;1.85;;